createdAt,value
2022-11-02T00:02:30.296Z,8.70
2022-11-02T00:05:00.468Z,8.60
2022-11-02T00:07:33.190Z,8.60
2022-11-02T00:10:03.340Z,8.50
2022-11-02T00:12:33.545Z,8.60
2022-11-02T00:15:03.800Z,8.60
2022-11-02T00:17:34.118Z,8.40
2022-11-02T00:20:04.518Z,8.40
2022-11-02T00:22:37.695Z,8.40
2022-11-02T00:25:12.480Z,8.40
2022-11-02T00:27:43.903Z,8.40
2022-11-02T00:30:14.843Z,8.40
2022-11-02T00:32:45.072Z,8.40
2022-11-02T00:35:16.370Z,8.40
2022-11-02T00:37:49.094Z,8.40
2022-11-02T00:40:20.005Z,8.40
2022-11-02T00:42:50.214Z,8.50
2022-11-02T00:45:20.553Z,8.40
2022-11-02T00:47:50.765Z,8.40
2022-11-02T00:50:21.327Z,8.40
2022-11-02T00:52:54.024Z,8.40
2022-11-02T00:55:24.091Z,8.40
2022-11-02T00:57:54.253Z,8.50
2022-11-02T01:00:24.739Z,8.40
2022-11-02T01:02:54.946Z,8.40
2022-11-02T01:05:25.171Z,8.40
2022-11-02T01:07:58.459Z,8.50
2022-11-02T01:10:28.850Z,8.50
2022-11-02T01:12:59.027Z,8.40
2022-11-02T01:15:29.312Z,8.40
2022-11-02T01:17:59.561Z,8.50
2022-11-02T01:20:29.702Z,8.70
2022-11-02T01:23:03.552Z,8.80
2022-11-02T01:25:33.762Z,8.70
2022-11-02T01:28:04.130Z,8.80
2022-11-02T01:30:34.502Z,8.80
2022-11-02T01:33:04.702Z,8.80
2022-11-02T01:35:34.924Z,8.80
2022-11-02T01:38:07.815Z,8.70
2022-11-02T01:40:39.250Z,8.50
2022-11-02T01:43:27.070Z,8.50
2022-11-02T01:46:01.812Z,8.50
2022-11-02T01:48:39.721Z,8.50
2022-11-02T01:51:16.657Z,8.60
2022-11-02T01:53:52.577Z,8.50
2022-11-02T01:56:26.821Z,8.50
2022-11-02T01:59:02.198Z,8.40
2022-11-02T02:01:33.088Z,8.50
2022-11-02T02:04:04.444Z,8.50
2022-11-02T02:06:34.930Z,8.60
2022-11-02T02:09:10.268Z,8.60
2022-11-02T02:11:43.023Z,8.50
2022-11-02T02:14:16.789Z,8.60
2022-11-02T02:17:09.361Z,8.40
2022-11-02T02:19:49.270Z,8.40
2022-11-02T02:22:55.270Z,8.30
2022-11-02T02:25:58.095Z,8.30
2022-11-02T02:28:40.688Z,8.30
2022-11-02T02:31:18.877Z,8.20
2022-11-02T02:33:57.210Z,8.20
2022-11-02T02:36:34.153Z,8.20
2022-11-02T02:39:09.058Z,8.20
2022-11-02T02:41:43.167Z,8.20
2022-11-02T02:44:22.577Z,8.10
2022-11-02T02:46:58.249Z,8.00
2022-11-02T02:49:35.497Z,8.00
2022-11-02T02:52:06.792Z,7.90
2022-11-02T02:54:43.672Z,7.90
2022-11-02T02:57:19.675Z,8.00
2022-11-02T02:59:52.799Z,7.90
2022-11-02T03:02:27.504Z,7.90
2022-11-02T03:04:57.817Z,7.80
2022-11-02T03:07:32.959Z,7.80
2022-11-02T03:10:14.760Z,7.80
2022-11-02T03:12:53.250Z,7.90
2022-11-02T03:15:33.162Z,8.00
2022-11-02T03:18:11.915Z,8.00
2022-11-02T03:20:54.414Z,7.90
2022-11-02T03:23:32.561Z,7.80
2022-11-02T03:26:09.880Z,7.90
2022-11-02T03:29:02.901Z,7.90
2022-11-02T03:31:42.997Z,7.90
2022-11-02T03:34:22.980Z,8.00
2022-11-02T03:37:00.373Z,8.00
2022-11-02T03:39:37.587Z,8.00
2022-11-02T03:42:08.689Z,7.90
2022-11-02T03:44:42.261Z,7.90
2022-11-02T03:47:19.448Z,7.90
2022-11-02T03:49:52.341Z,7.90
2022-11-02T03:52:27.428Z,8.00
2022-11-02T03:55:06.746Z,8.00
2022-11-02T03:57:48.961Z,8.00
2022-11-02T04:00:22.392Z,7.90
2022-11-02T04:02:58.088Z,8.00
2022-11-02T04:05:32.805Z,7.90
2022-11-02T04:08:15.584Z,7.90
2022-11-02T04:10:58.097Z,7.80
2022-11-02T04:13:40.693Z,7.90
2022-11-02T04:16:11.029Z,7.90
2022-11-02T04:18:57.216Z,7.90
2022-11-02T04:21:27.379Z,7.90
2022-11-02T04:24:10.177Z,7.90
2022-11-02T04:26:40.900Z,7.90
2022-11-02T04:29:11.210Z,7.80
2022-11-02T04:31:41.517Z,7.90
2022-11-02T04:34:11.582Z,7.90
2022-11-02T04:36:41.742Z,7.90
2022-11-02T04:39:09.275Z,7.90
2022-11-02T04:41:45.067Z,7.90
2022-11-02T04:44:17.228Z,7.90
2022-11-02T04:46:47.962Z,8.00
2022-11-02T04:49:22.670Z,7.90
2022-11-02T04:51:52.618Z,7.90
2022-11-02T04:54:22.786Z,8.00
2022-11-02T04:56:53.166Z,8.00
2022-11-02T04:59:23.289Z,7.90
2022-11-02T05:01:53.604Z,7.90
2022-11-02T05:04:26.786Z,7.90
2022-11-02T05:07:01.269Z,7.90
2022-11-02T05:09:31.864Z,7.90
2022-11-02T05:12:05.275Z,7.90
2022-11-02T05:14:35.568Z,7.80
2022-11-02T05:17:06.209Z,7.80
2022-11-02T05:19:39.081Z,7.80
2022-11-02T05:22:09.262Z,7.80
2022-11-02T05:24:39.464Z,7.90
2022-11-02T05:27:09.626Z,7.90
2022-11-02T05:29:39.796Z,7.90
2022-11-02T05:32:09.892Z,7.90
2022-11-02T05:34:42.786Z,7.90
2022-11-02T05:37:12.855Z,7.90
2022-11-02T05:39:45.125Z,7.90
2022-11-02T05:42:18.009Z,7.90
2022-11-02T05:44:48.212Z,7.90
2022-11-02T05:47:18.375Z,8.00
2022-11-02T05:49:51.166Z,7.90
2022-11-02T05:52:21.258Z,7.90
2022-11-02T05:54:51.405Z,7.90
2022-11-02T05:57:21.477Z,7.90
2022-11-02T05:59:51.706Z,8.00
2022-11-02T06:02:23.419Z,8.00
2022-11-02T06:04:58.431Z,7.90
2022-11-02T06:07:28.742Z,7.90
2022-11-02T06:09:58.866Z,7.90
2022-11-02T06:12:29.075Z,7.90
2022-11-02T06:14:59.359Z,7.90
2022-11-02T06:17:30.694Z,7.90
2022-11-02T06:20:03.740Z,7.90
2022-11-02T06:22:33.954Z,7.90
2022-11-02T06:25:04.122Z,8.00
2022-11-02T06:27:34.240Z,8.00
2022-11-02T06:30:04.908Z,8.00
2022-11-02T06:32:35.212Z,8.00
2022-11-02T06:35:09.404Z,8.00
2022-11-02T06:37:39.559Z,8.10
2022-11-02T06:40:11.464Z,8.20
2022-11-02T06:42:45.090Z,8.20
2022-11-02T06:45:20.827Z,8.20
2022-11-02T06:47:52.092Z,8.30
2022-11-02T06:50:25.440Z,8.30
2022-11-02T06:52:56.030Z,8.40
2022-11-02T06:55:26.274Z,8.50
2022-11-02T06:57:56.397Z,8.50
2022-11-02T07:00:26.515Z,8.60
2022-11-02T07:03:03.900Z,8.60
2022-11-02T07:05:39.748Z,8.60
2022-11-02T07:08:10.009Z,8.70
2022-11-02T07:10:40.363Z,8.80
2022-11-02T07:13:10.581Z,8.80
2022-11-02T07:15:41.020Z,8.90
2022-11-02T07:18:11.526Z,8.90
2022-11-02T07:20:44.362Z,9.00
2022-11-02T07:23:14.537Z,9.10
2022-11-02T07:25:44.785Z,9.10
2022-11-02T07:28:17.511Z,9.20
2022-11-02T07:30:47.750Z,9.20
2022-11-02T07:33:17.943Z,9.30
2022-11-02T07:35:50.866Z,9.30
2022-11-02T07:38:21.046Z,9.40
2022-11-02T07:40:53.459Z,9.50
2022-11-02T07:43:23.624Z,9.60
2022-11-02T07:45:53.882Z,9.60
2022-11-02T07:48:23.973Z,9.70
2022-11-02T07:50:56.766Z,9.70
2022-11-02T07:53:26.822Z,9.80
2022-11-02T07:55:57.069Z,9.90
2022-11-02T07:58:27.305Z,9.90
2022-11-02T08:01:01.082Z,10.00
2022-11-02T08:03:32.112Z,10.00
2022-11-02T08:06:07.378Z,10.10
2022-11-02T08:08:37.610Z,10.10
2022-11-02T08:11:11.096Z,10.30
2022-11-02T08:13:41.864Z,10.30
2022-11-02T08:16:11.967Z,10.40
2022-11-02T08:18:42.454Z,10.40
2022-11-02T08:21:15.270Z,10.60
2022-11-02T08:23:45.458Z,10.60
2022-11-02T08:26:15.600Z,10.70
2022-11-02T08:28:45.889Z,10.80
2022-11-02T08:31:18.949Z,10.90
2022-11-02T08:33:49.515Z,11.00
2022-11-02T08:36:22.310Z,11.10
2022-11-02T08:38:52.595Z,11.20
2022-11-02T08:41:22.833Z,11.30
2022-11-02T08:43:53.081Z,11.40
2022-11-02T08:46:23.404Z,11.50
2022-11-02T08:48:53.677Z,11.60
2022-11-02T08:51:26.455Z,11.50
2022-11-02T08:53:57.200Z,11.50
2022-11-02T08:56:27.375Z,11.50
2022-11-02T08:58:57.669Z,11.50
2022-11-02T09:01:27.897Z,11.50
2022-11-02T09:03:58.057Z,11.40
2022-11-02T09:06:30.736Z,11.40
2022-11-02T09:09:00.917Z,11.50
2022-11-02T09:11:31.026Z,11.50
2022-11-02T09:14:01.311Z,11.50
2022-11-02T09:16:31.437Z,11.50
2022-11-02T09:19:01.714Z,11.50
2022-11-02T09:21:34.554Z,11.50
2022-11-02T09:24:04.813Z,11.60
2022-11-02T09:26:35.002Z,11.60
2022-11-02T09:29:05.370Z,11.80
2022-11-02T09:31:35.538Z,11.80
2022-11-02T09:34:05.785Z,11.90
2022-11-02T09:36:38.558Z,11.90
2022-11-02T09:39:08.817Z,11.90
2022-11-02T09:41:45.302Z,11.80
2022-11-02T09:44:23.174Z,11.70
2022-11-02T09:47:27.827Z,11.80
2022-11-02T09:49:44.854Z,11.80
2022-11-02T09:52:28.336Z,12.00
2022-11-02T09:55:00.130Z,12.20
2022-11-02T09:57:33.286Z,12.30
2022-11-02T10:00:03.605Z,12.30
2022-11-02T10:02:48.970Z,12.50
2022-11-02T10:05:40.836Z,12.60
2022-11-02T10:08:30.447Z,12.70
2022-11-02T10:11:15.537Z,12.80
2022-11-02T10:13:51.216Z,12.90
2022-11-02T10:16:29.453Z,13.00
2022-11-02T10:18:59.790Z,13.00
2022-11-02T10:21:35.797Z,13.10
2022-11-02T10:24:22.399Z,13.30
2022-11-02T10:26:52.946Z,13.40
2022-11-02T10:29:36.640Z,13.50
2022-11-02T10:32:07.482Z,13.60
2022-11-02T10:34:37.956Z,13.70
2022-11-02T10:37:25.449Z,13.90
2022-11-02T10:40:08.731Z,14.00
2022-11-02T10:42:59.491Z,14.10
2022-11-02T10:46:09.968Z,14.20
2022-11-02T10:48:49.798Z,14.10
2022-11-02T10:51:22.085Z,14.10
2022-11-02T10:53:55.153Z,14.30
2022-11-02T10:56:34.309Z,14.40
2022-11-02T10:59:13.735Z,14.50
2022-11-02T11:01:50.126Z,14.40
2022-11-02T11:04:25.760Z,14.40
2022-11-02T11:06:58.191Z,14.50
2022-11-02T11:09:32.230Z,14.60
2022-11-02T11:12:07.784Z,14.60
2022-11-02T11:20:38.733Z,14.70
2022-11-02T11:23:22.509Z,14.80
2022-11-02T11:26:04.515Z,14.90
2022-11-02T11:28:43.096Z,14.80
2022-11-02T11:31:16.973Z,14.90
2022-11-02T11:33:50.837Z,14.90
2022-11-02T11:36:28.642Z,14.80
2022-11-02T11:39:02.060Z,14.60
2022-11-02T11:41:34.507Z,14.60
2022-11-02T11:44:07.624Z,14.60
2022-11-02T11:46:47.420Z,14.50
2022-11-02T11:49:41.715Z,14.50
2022-11-02T11:52:29.968Z,14.40
2022-11-02T11:55:02.881Z,14.30
2022-11-02T11:57:35.502Z,14.30
2022-11-02T12:00:30.510Z,14.20
2022-11-02T12:03:08.557Z,14.20
2022-11-02T12:05:52.279Z,14.20
2022-11-02T12:08:44.470Z,14.20
2022-11-02T12:11:33.921Z,14.20
2022-11-02T12:14:19.700Z,14.20
2022-11-02T12:17:34.242Z,14.20
2022-11-02T12:20:25.662Z,14.10
2022-11-02T12:23:07.881Z,14.20
2022-11-02T12:25:51.771Z,14.20
2022-11-02T12:28:34.993Z,14.10
2022-11-02T12:31:18.339Z,14.10
2022-11-02T12:34:08.367Z,14.10
2022-11-02T12:40:11.330Z,14.20
2022-11-02T12:42:53.069Z,14.20
2022-11-02T12:45:42.674Z,14.20
2022-11-02T12:48:19.891Z,14.30
2022-11-02T12:51:05.891Z,14.30
2022-11-02T12:53:48.046Z,14.30
2022-11-02T12:56:24.143Z,14.40
2022-11-02T12:58:55.667Z,14.40
2022-11-02T13:01:31.355Z,14.30
2022-11-02T13:04:12.436Z,14.30
2022-11-02T13:06:50.710Z,14.40
2022-11-02T13:09:28.660Z,14.50
2022-11-02T13:12:07.109Z,14.40
2022-11-02T13:14:43.395Z,14.50
2022-11-02T13:17:18.783Z,14.60
2022-11-02T13:19:54.073Z,14.60
2022-11-02T13:22:33.185Z,14.80
2022-11-02T13:25:15.767Z,14.80
2022-11-02T13:27:53.697Z,14.80
2022-11-02T13:30:24.177Z,14.90
2022-11-02T13:33:02.919Z,14.70
2022-11-02T13:35:37.397Z,14.60
2022-11-02T13:38:29.060Z,14.70
2022-11-02T13:41:27.415Z,14.90
2022-11-02T13:44:53.988Z,14.90
2022-11-02T13:47:56.336Z,14.90
2022-11-02T13:50:28.648Z,14.60
2022-11-02T13:53:03.156Z,14.60
2022-11-02T13:55:45.840Z,14.60
2022-11-02T13:58:27.626Z,14.70
2022-11-02T14:01:03.898Z,14.70
2022-11-02T14:03:48.586Z,14.80
2022-11-02T14:06:21.381Z,14.70
2022-11-02T14:08:55.531Z,14.80
2022-11-02T14:11:39.707Z,14.70
2022-11-02T14:14:27.717Z,14.70
2022-11-02T14:17:16.026Z,14.70
2022-11-02T14:20:04.922Z,14.70
2022-11-02T14:22:35.130Z,14.80
2022-11-02T14:25:21.247Z,14.70
2022-11-02T14:27:59.839Z,14.60
2022-11-02T14:30:49.098Z,14.50
2022-11-02T14:33:42.785Z,14.40
2022-11-02T14:36:29.694Z,14.40
2022-11-02T14:39:13.204Z,14.30
2022-11-02T14:42:12.917Z,14.20
2022-11-02T14:45:15.714Z,14.20
2022-11-02T14:47:46.240Z,14.20
2022-11-02T14:50:21.439Z,14.10
2022-11-02T14:53:03.730Z,14.10
2022-11-02T14:55:37.056Z,14.20
2022-11-02T14:58:11.416Z,14.20
2022-11-02T15:01:00.631Z,14.10
2022-11-02T15:03:38.347Z,14.10
2022-11-02T15:06:18.033Z,14.00
2022-11-02T15:08:58.486Z,14.00
2022-11-02T15:11:49.305Z,14.00
2022-11-02T15:14:42.754Z,13.90
2022-11-02T15:18:01.389Z,13.90
2022-11-02T15:20:36.475Z,13.90
2022-11-02T15:23:30.593Z,13.80
2022-11-02T15:26:02.961Z,13.80
2022-11-02T15:28:37.192Z,13.70
2022-11-02T15:31:15.969Z,13.70
2022-11-02T15:33:51.677Z,13.60
2022-11-02T15:36:29.490Z,13.60
2022-11-02T15:39:00.330Z,13.50
2022-11-02T15:41:40.568Z,13.50
2022-11-02T15:44:40.197Z,13.40
2022-11-02T15:47:19.655Z,13.40
2022-11-02T15:50:15.845Z,13.30
2022-11-02T15:53:22.791Z,13.30
2022-11-02T15:56:05.580Z,13.20
2022-11-02T15:58:51.787Z,13.20
2022-11-02T16:01:24.781Z,13.20
2022-11-02T16:03:59.204Z,13.10
2022-11-02T16:06:35.454Z,13.00
2022-11-02T16:09:27.045Z,13.00
2022-11-02T16:12:06.042Z,12.90
2022-11-02T16:14:36.135Z,12.90
2022-11-02T16:17:06.464Z,12.80
2022-11-02T16:19:36.589Z,12.80
2022-11-02T16:22:12.708Z,12.70
2022-11-02T16:24:45.784Z,12.60
2022-11-02T16:27:16.988Z,12.60
2022-11-02T16:29:47.202Z,12.60
2022-11-02T16:32:18.177Z,12.60
2022-11-02T16:34:48.844Z,12.50
2022-11-02T16:37:23.783Z,12.50
2022-11-02T16:39:54.539Z,12.40
2022-11-02T16:42:27.026Z,12.40
2022-11-02T16:45:00.981Z,12.40
2022-11-02T16:47:41.119Z,12.30
2022-11-02T16:50:25.962Z,12.30
2022-11-02T20:42:06.626Z,7.80
